Time;durP1;ratioP1;P1;durP2;ratioP2;P2;SDS_P1;SDS_P2;PMS_P1;PMS_P2;Temp;Humidity;BMP_temperature;BMP_pressure;BME280_temperature;BME280_humidity;BME280_pressure;Samples;Min_cycle;Max_cycle;Signal;HPM_P1;HPM_P2
2022/11/08 00:03:36;;;;;;;4.57;0.77;;;12.50;99.90;;;;;;5021758;28;20656;-73
2022/11/08 00:14:17;;;;;;;7.53;0.80;;;12.40;99.90;;;;;;5026214;28;20040;-74
2022/11/08 00:16:44;;;;;;;4.95;0.60;;;12.30;99.90;;;;;;5038658;28;20040;-74
2022/11/08 00:19:10;;;;;;;5.05;1.10;;;12.30;99.90;;;;;;5043184;28;20036;-73
2022/11/08 00:21:37;;;;;;;5.63;0.93;;;12.30;99.90;;;;;;5041085;28;20494;-72
2022/11/08 00:24:03;;;;;;;3.35;0.70;;;12.30;99.90;;;;;;5040019;28;20496;-73
2022/11/08 00:26:30;;;;;;;7.90;1.33;;;12.30;99.90;;;;;;5029752;28;20037;-72
2022/11/08 00:28:57;;;;;;;7.18;0.95;;;12.20;99.90;;;;;;5011854;28;20507;-73
2022/11/08 00:31:24;;;;;;;5.20;0.82;;;12.20;99.90;;;;;;5057396;28;20032;-74
2022/11/08 00:33:50;;;;;;;6.20;1.00;;;12.20;99.90;;;;;;5025802;28;20047;-72
2022/11/08 00:36:17;;;;;;;6.85;1.08;;;12.20;99.90;;;;;;5010035;28;20041;-73
2022/11/08 00:38:43;;;;;;;8.15;0.98;;;12.20;99.90;;;;;;5025890;28;20048;-73
2022/11/08 00:41:10;;;;;;;7.35;0.80;;;12.10;99.90;;;;;;5006514;28;20036;-72
2022/11/08 00:43:37;;;;;;;5.65;0.98;;;12.10;99.90;;;;;;5005206;28;20393;-71
2022/11/08 00:46:04;;;;;;;4.18;0.95;;;12.10;99.90;;;;;;5041832;28;20041;-72
2022/11/08 00:48:30;;;;;;;5.05;1.05;;;12.00;99.90;;;;;;5020402;28;20040;-72
2022/11/08 00:51:01;;;;;;;5.72;1.50;;;12.00;99.90;;;;;;5021012;28;20036;-74
2022/11/08 00:53:28;;;;;;;6.93;0.98;;;11.90;99.90;;;;;;5037449;28;20529;-73
2022/11/08 00:56:03;;;;;;;6.25;0.98;;;11.90;99.90;;;;;;5011357;28;20044;-73
2022/11/08 00:58:30;;;;;;;7.15;1.30;;;11.80;99.90;;;;;;5040173;28;20064;-72
2022/11/08 01:00:57;;;;;;;6.90;0.70;;;11.80;99.90;;;;;;5019626;28;20051;-73
2022/11/08 01:03:24;;;;;;;5.78;0.95;;;11.80;99.90;;;;;;5022742;28;20040;-74
2022/11/08 01:05:53;;;;;;;4.90;0.60;;;11.70;99.90;;;;;;5016096;28;20044;-73
2022/11/08 01:08:22;;;;;;;4.13;0.98;;;11.70;99.90;;;;;;5007663;28;20033;-73
2022/11/08 01:10:50;;;;;;;3.03;0.70;;;11.60;99.90;;;;;;5023174;28;20430;-74
2022/11/08 01:13:18;;;;;;;6.88;0.90;;;11.60;99.90;;;;;;5041059;28;20496;-72
2022/11/08 01:15:45;;;;;;;6.47;1.08;;;11.60;99.90;;;;;;5028976;28;20040;-72
2022/11/08 01:18:14;;;;;;;5.57;1.00;;;11.50;99.90;;;;;;5028077;28;20040;-74
2022/11/08 01:20:42;;;;;;;6.25;0.90;;;11.50;99.90;;;;;;5040426;28;20488;-74
2022/11/08 01:23:09;;;;;;;4.15;0.80;;;11.50;99.90;;;;;;5008709;28;20029;-73
2022/11/08 01:25:41;;;;;;;7.30;1.10;;;11.50;99.90;;;;;;5009686;28;20781;-73
2022/11/08 01:28:10;;;;;;;8.37;1.30;;;11.50;99.90;;;;;;5041704;28;20043;-73
2022/11/08 01:30:37;;;;;;;5.20;1.10;;;11.40;99.90;;;;;;5021749;28;20036;-73
2022/11/08 01:33:05;;;;;;;3.10;0.57;;;11.40;99.90;;;;;;5023572;28;20032;-74
2022/11/08 01:35:32;;;;;;;5.55;1.30;;;11.40;99.90;;;;;;5026300;28;20045;-73
2022/11/08 01:37:59;;;;;;;6.93;1.20;;;11.40;99.90;;;;;;5043574;28;20045;-74
2022/11/08 01:40:27;;;;;;;3.38;0.70;;;11.30;99.90;;;;;;5040631;28;20041;-72
2022/11/08 01:42:54;;;;;;;4.30;0.70;;;11.30;99.90;;;;;;5040521;28;20040;-74
2022/11/08 01:45:58;;;;;;;6.95;1.13;;;11.20;99.90;;;;;;5024087;28;20041;-75
2022/11/08 01:48:26;;;;;;;4.18;0.88;;;11.20;99.90;;;;;;5024795;28;20041;-72
2022/11/08 01:50:55;;;;;;;3.50;1.00;;;11.20;99.90;;;;;;5037841;28;20045;-73
2022/11/08 01:53:23;;;;;;;8.05;1.08;;;11.10;99.90;;;;;;5039172;28;20041;-74
2022/11/08 01:55:49;;;;;;;8.65;1.05;;;11.10;99.90;;;;;;5024904;28;20070;-74
2022/11/08 01:58:21;;;;;;;3.65;0.85;;;11.10;99.90;;;;;;5040822;28;20068;-73
2022/11/08 02:00:47;;;;;;;6.20;0.80;;;11.10;99.90;;;;;;5020503;28;20044;-74
2022/11/08 02:03:18;;;;;;;4.82;0.85;;;11.10;99.90;;;;;;5022527;28;20391;-73
2022/11/08 02:05:46;;;;;;;3.65;0.70;;;11.00;99.90;;;;;;5008207;28;20033;-73
2022/11/08 02:08:25;;;;;;;2.67;0.80;;;11.00;99.90;;;;;;5008039;28;20040;-73
2022/11/08 02:10:52;;;;;;;2.72;0.50;;;11.00;99.90;;;;;;5021230;28;20381;-74
2022/11/08 02:13:22;;;;;;;5.82;1.60;;;11.00;99.90;;;;;;5022250;28;20036;-73
2022/11/08 02:15:49;;;;;;;5.65;1.17;;;10.90;99.90;;;;;;5040435;28;20064;-73
2022/11/08 02:18:17;;;;;;;7.40;1.70;;;10.90;99.90;;;;;;5007785;28;20040;-72
2022/11/08 02:20:55;;;;;;;5.30;1.25;;;10.90;99.90;;;;;;5005501;28;20033;-73
2022/11/08 02:23:47;;;;;;;5.63;1.33;;;10.90;99.90;;;;;;5017559;28;20429;-73
2022/11/08 02:26:15;;;;;;;5.18;1.20;;;10.90;99.90;;;;;;5020090;28;20052;-74
2022/11/08 02:28:43;;;;;;;8.85;1.20;;;10.90;99.90;;;;;;5040076;28;20037;-73
2022/11/08 02:31:12;;;;;;;5.10;1.25;;;10.90;99.90;;;;;;5020409;28;20048;-72
2022/11/08 02:33:39;;;;;;;6.70;1.52;;;10.90;99.90;;;;;;5039866;28;20033;-73
2022/11/08 02:36:08;;;;;;;6.68;1.50;;;10.90;99.90;;;;;;5011018;28;20064;-73
2022/11/08 02:38:41;;;;;;;8.55;1.40;;;10.90;99.90;;;;;;5023840;28;20041;-73
2022/11/08 02:41:07;;;;;;;8.18;2.00;;;10.90;99.90;;;;;;5026910;28;20040;-73
2022/11/08 02:43:34;;;;;;;5.60;2.08;;;10.90;99.90;;;;;;5025970;28;20507;-72
2022/11/08 02:46:01;;;;;;;6.93;1.20;;;10.90;99.90;;;;;;5028275;28;20045;-73
2022/11/08 02:48:27;;;;;;;9.27;2.28;;;10.90;99.90;;;;;;5011242;28;20048;-73
2022/11/08 02:50:54;;;;;;;8.90;2.05;;;10.90;99.90;;;;;;5042592;28;20636;-74
2022/11/08 02:53:21;;;;;;;4.95;1.40;;;10.90;99.90;;;;;;5011196;28;20474;-73
2022/11/08 02:55:47;;;;;;;9.73;1.40;;;10.90;99.90;;;;;;5029566;28;20064;-74
2022/11/08 02:58:13;;;;;;;7.90;2.15;;;10.90;99.90;;;;;;5044547;28;20068;-72
2022/11/08 03:00:40;;;;;;;5.53;1.70;;;10.90;99.90;;;;;;5025004;28;20039;-72
2022/11/08 03:03:06;;;;;;;9.45;1.45;;;10.90;99.90;;;;;;5010248;28;20083;-73
2022/11/08 03:05:33;;;;;;;5.95;1.02;;;10.90;99.90;;;;;;5046216;28;20746;-72
2022/11/08 03:07:59;;;;;;;12.00;2.78;;;10.90;99.90;;;;;;5045997;28;20484;-72
2022/11/08 03:10:26;;;;;;;7.40;1.65;;;10.90;99.90;;;;;;5014433;28;20040;-72
2022/11/08 03:13:00;;;;;;;8.13;2.22;;;10.90;99.90;;;;;;5026814;28;20049;-73
2022/11/08 03:15:27;;;;;;;9.35;1.40;;;10.90;99.90;;;;;;5029464;28;20033;-74
2022/11/08 03:17:57;;;;;;;3.40;1.00;;;10.90;99.90;;;;;;5047800;28;20037;-75
2022/11/08 03:20:23;;;;;;;7.38;1.13;;;10.90;99.90;;;;;;5043806;28;20604;-74
2022/11/08 03:22:57;;;;;;;5.90;1.05;;;10.90;99.90;;;;;;5042366;28;20571;-72
2022/11/08 03:25:24;;;;;;;5.03;1.42;;;10.90;99.90;;;;;;5027281;28;20670;-74
2022/11/08 03:27:50;;;;;;;6.68;1.40;;;10.90;99.90;;;;;;5045590;28;20041;-74
2022/11/08 03:30:17;;;;;;;11.15;1.55;;;10.80;99.90;;;;;;5023885;28;20041;-72
2022/11/08 03:32:47;;;;;;;10.20;1.45;;;10.90;99.90;;;;;;5025677;28;20036;-73
2022/11/08 03:35:14;;;;;;;5.70;1.50;;;10.90;99.90;;;;;;5011163;28;20040;-73
2022/11/08 03:37:40;;;;;;;6.32;1.67;;;10.90;99.90;;;;;;5027421;28;20040;-72
2022/11/08 03:40:07;;;;;;;7.05;1.40;;;10.90;99.90;;;;;;5007853;28;20036;-72
2022/11/08 03:42:34;;;;;;;7.03;1.55;;;10.90;99.90;;;;;;5024096;28;20040;-72
2022/11/08 03:45:00;;;;;;;5.55;1.45;;;10.90;99.90;;;;;;5027606;28;20041;-72
2022/11/08 03:47:26;;;;;;;7.60;1.65;;;10.80;99.90;;;;;;5044224;28;20653;-73
2022/11/08 03:49:53;;;;;;;5.82;1.27;;;10.90;99.90;;;;;;5043249;28;20416;-74
2022/11/08 03:52:19;;;;;;;5.30;1.35;;;10.90;99.90;;;;;;5024136;28;20512;-73
2022/11/08 03:54:46;;;;;;;5.93;1.33;;;10.90;99.90;;;;;;5023553;28;20028;-74
2022/11/08 03:57:12;;;;;;;4.93;0.95;;;10.90;99.90;;;;;;5042339;28;20431;-74
2022/11/08 03:59:38;;;;;;;9.68;1.48;;;10.90;99.90;;;;;;5026852;28;20040;-72
2022/11/08 04:02:05;;;;;;;9.02;1.08;;;10.90;99.90;;;;;;5023299;28;20035;-73
2022/11/08 04:04:32;;;;;;;10.02;1.15;;;10.90;99.90;;;;;;5009097;28;20510;-72
2022/11/08 04:06:58;;;;;;;5.78;0.90;;;10.80;99.90;;;;;;5026787;28;20052;-72
2022/11/08 04:09:24;;;;;;;4.10;0.80;;;10.90;99.90;;;;;;5026055;28;20048;-73
2022/11/08 04:21:17;;;;;;;5.13;0.82;;;10.90;99.90;;;;;;5046295;28;20041;-74
2022/11/08 04:22:53;;;;;;;3.75;0.60;;;10.80;99.90;;;;;;5023870;28;20048;-74
2022/11/08 04:25:19;;;;;;;6.15;0.63;;;10.80;99.90;;;;;;5048437;28;20040;-74
2022/11/08 04:27:48;;;;;;;5.43;0.68;;;10.70;99.90;;;;;;5046123;28;20132;-74
2022/11/08 04:30:14;;;;;;;4.72;1.02;;;10.80;99.90;;;;;;5025168;28;20514;-71
2022/11/08 04:32:41;;;;;;;5.00;0.73;;;10.80;99.90;;;;;;5006931;28;20048;-72
2022/11/08 04:35:07;;;;;;;5.40;0.70;;;10.80;99.90;;;;;;5044676;28;20503;-73
2022/11/08 04:37:33;;;;;;;5.13;0.52;;;10.70;99.90;;;;;;5046821;28;20402;-73
2022/11/08 04:40:00;;;;;;;4.38;0.77;;;10.70;99.90;;;;;;5011764;28;20468;-72
2022/11/08 04:42:26;;;;;;;4.95;0.63;;;10.70;99.90;;;;;;5025286;28;20763;-72
2022/11/08 04:44:52;;;;;;;3.58;0.88;;;10.70;99.90;;;;;;5043787;28;20040;-74
2022/11/08 04:47:19;;;;;;;3.25;0.60;;;10.70;99.90;;;;;;5044165;28;21189;-74
2022/11/08 04:49:45;;;;;;;4.45;0.82;;;10.60;99.90;;;;;;5027575;28;20048;-73
2022/11/08 04:52:14;;;;;;;4.95;0.60;;;10.60;99.90;;;;;;5022972;28;20028;-73
2022/11/08 04:54:43;;;;;;;3.78;0.60;;;10.60;99.90;;;;;;5023697;28;20036;-72
2022/11/08 04:57:10;;;;;;;4.18;0.77;;;10.60;99.90;;;;;;5028624;28;20056;-73
2022/11/08 04:59:36;;;;;;;3.40;0.77;;;10.60;99.90;;;;;;5012171;28;20047;-73
2022/11/08 05:02:03;;;;;;;5.28;0.95;;;10.60;99.90;;;;;;5007307;28;20028;-73
2022/11/08 05:04:29;;;;;;;4.90;0.82;;;10.60;99.90;;;;;;5010409;28;20108;-73
2022/11/08 05:06:56;;;;;;;3.95;0.77;;;10.60;99.90;;;;;;5027426;28;20055;-73
2022/11/08 05:09:22;;;;;;;3.88;0.60;;;10.60;99.90;;;;;;5011140;28;20041;-72
2022/11/08 05:11:49;;;;;;;3.42;0.88;;;10.60;99.90;;;;;;5021768;28;20628;-74
2022/11/08 05:14:15;;;;;;;4.65;0.80;;;10.60;99.90;;;;;;5040933;28;20028;-74
2022/11/08 05:16:42;;;;;;;5.05;0.95;;;10.60;99.90;;;;;;5043960;28;20037;-73
2022/11/08 05:19:08;;;;;;;5.38;1.17;;;10.60;99.90;;;;;;5026392;28;20048;-73
2022/11/08 05:24:20;;;;;;;4.78;0.80;;;10.60;99.90;;;;;;5039839;28;20048;-73
2022/11/08 05:26:47;;;;;;;3.58;0.90;;;10.60;99.90;;;;;;5009965;28;20059;-73
2022/11/08 05:29:15;;;;;;;3.50;0.98;;;10.60;99.90;;;;;;5024883;28;20049;-73
2022/11/08 05:31:42;;;;;;;4.97;0.90;;;10.50;99.90;;;;;;5006199;28;20048;-73
2022/11/08 05:34:08;;;;;;;6.75;1.75;;;10.50;99.90;;;;;;5004428;28;20241;-71
2022/11/08 05:36:34;;;;;;;3.65;1.55;;;10.50;99.90;;;;;;5006217;28;20109;-73
2022/11/08 05:39:01;;;;;;;4.20;1.15;;;10.50;99.90;;;;;;5025075;28;20032;-72
2022/11/08 05:41:28;;;;;;;3.78;0.70;;;10.40;99.90;;;;;;5037764;28;20037;-73
2022/11/08 05:43:55;;;;;;;4.30;0.70;;;10.40;99.90;;;;;;5023302;28;20033;-74
2022/11/08 05:46:23;;;;;;;3.85;0.75;;;10.40;99.90;;;;;;5005964;28;20456;-74
2022/11/08 05:48:49;;;;;;;3.75;0.65;;;10.40;99.90;;;;;;5006624;28;20033;-73
2022/11/08 05:51:17;;;;;;;4.97;2.30;;;10.40;99.90;;;;;;5004920;28;20087;-74
2022/11/08 05:53:45;;;;;;;4.55;1.58;;;10.40;99.90;;;;;;5037753;28;20041;-73
2022/11/08 05:56:12;;;;;;;5.18;1.05;;;10.40;99.90;;;;;;5011503;28;20020;-73
2022/11/08 05:58:38;;;;;;;4.05;1.10;;;10.40;99.90;;;;;;5005277;28;20132;-73
2022/11/08 06:01:16;;;;;;;4.20;0.98;;;10.40;99.90;;;;;;5038597;28;20029;-74
2022/11/08 06:03:43;;;;;;;6.53;1.65;;;10.30;99.90;;;;;;5036679;28;20021;-72
2022/11/08 06:06:15;;;;;;;5.38;1.65;;;10.30;99.90;;;;;;5024548;28;20061;-74
2022/11/08 06:08:42;;;;;;;3.40;1.00;;;10.40;99.90;;;;;;5040086;28;20037;-75
2022/11/08 06:11:11;;;;;;;3.13;1.08;;;10.40;99.90;;;;;;5036213;28;20036;-74
2022/11/08 06:13:38;;;;;;;3.85;0.90;;;10.40;99.90;;;;;;5036989;28;20025;-74
2022/11/08 06:16:09;;;;;;;5.20;1.10;;;10.40;99.90;;;;;;5040632;28;20129;-73
2022/11/08 06:18:36;;;;;;;6.70;1.48;;;10.40;99.90;;;;;;5038385;28;20040;-74
2022/11/08 06:21:04;;;;;;;5.50;1.50;;;10.40;99.90;;;;;;5019805;28;20043;-72
2022/11/08 06:23:30;;;;;;;3.95;0.73;;;10.40;99.90;;;;;;5043119;28;20049;-72
2022/11/08 06:25:57;;;;;;;2.70;0.88;;;10.40;99.90;;;;;;5044153;28;20032;-72
2022/11/08 06:28:23;;;;;;;3.38;0.60;;;10.40;99.90;;;;;;5024581;28;20041;-74
2022/11/08 06:30:50;;;;;;;2.67;0.90;;;10.30;99.90;;;;;;5022009;28;20024;-74
2022/11/08 06:33:17;;;;;;;2.42;1.10;;;10.30;99.90;;;;;;5043385;28;20041;-73
2022/11/08 06:35:44;;;;;;;5.63;1.52;;;10.30;99.90;;;;;;5043430;28;20036;-72
2022/11/08 06:38:10;;;;;;;3.45;0.73;;;10.30;99.90;;;;;;5023889;28;20045;-72
2022/11/08 06:40:38;;;;;;;5.90;1.25;;;10.30;99.90;;;;;;5009061;28;20040;-73
2022/11/08 06:43:05;;;;;;;5.50;1.15;;;10.30;99.90;;;;;;5007075;28;20052;-72
2022/11/08 06:45:32;;;;;;;3.08;1.02;;;10.40;99.90;;;;;;5042471;28;20041;-74
2022/11/08 06:48:00;;;;;;;5.20;1.27;;;10.40;99.90;;;;;;5044815;28;20045;-73
2022/11/08 06:50:28;;;;;;;4.28;1.20;;;10.40;99.90;;;;;;5026238;28;20625;-72
2022/11/08 06:52:59;;;;;;;3.30;1.17;;;10.40;99.90;;;;;;5042012;28;20466;-74
2022/11/08 06:55:25;;;;;;;7.40;1.77;;;10.50;99.90;;;;;;5044340;28;20029;-72
2022/11/08 06:57:51;;;;;;;6.25;1.45;;;10.50;99.90;;;;;;5026028;28;20532;-71
2022/11/08 07:00:18;;;;;;;5.25;1.00;;;10.50;99.90;;;;;;5005641;28;20036;-73
2022/11/08 07:02:50;;;;;;;4.60;1.83;;;10.60;99.90;;;;;;5036688;28;20036;-73
2022/11/08 07:05:16;;;;;;;4.65;1.27;;;10.60;99.90;;;;;;5035237;28;20033;-72
2022/11/08 07:07:43;;;;;;;2.95;1.00;;;10.70;99.90;;;;;;5042354;28;20496;-71
2022/11/08 07:10:09;;;;;;;6.47;1.50;;;10.70;99.90;;;;;;5042613;28;20838;-72
2022/11/08 07:12:35;;;;;;;4.75;1.45;;;10.80;99.90;;;;;;5020610;28;20033;-73
2022/11/08 07:15:02;;;;;;;6.35;2.55;;;10.70;99.90;;;;;;5041417;28;20498;-71
2022/11/08 07:17:28;;;;;;;7.45;2.03;;;10.70;99.90;;;;;;5026502;28;20411;-72
2022/11/08 07:19:54;;;;;;;4.80;1.67;;;10.80;99.90;;;;;;5038558;28;20476;-74
2022/11/08 07:22:21;;;;;;;7.15;2.67;;;10.80;99.90;;;;;;5033785;28;20033;-74
2022/11/08 07:24:47;;;;;;;7.40;2.33;;;10.80;99.90;;;;;;5034524;28;20413;-72
2022/11/08 07:27:13;;;;;;;6.20;2.00;;;10.80;99.90;;;;;;5040184;28;20040;-75
2022/11/08 07:29:39;;;;;;;6.47;1.70;;;10.80;99.90;;;;;;5038196;28;20056;-74
2022/11/08 07:32:06;;;;;;;6.18;2.13;;;10.80;99.90;;;;;;5036680;28;20033;-73
2022/11/08 07:34:32;;;;;;;3.78;1.63;;;10.90;99.90;;;;;;5009004;28;20043;-72
2022/11/08 07:36:59;;;;;;;10.13;3.13;;;10.90;99.90;;;;;;5045662;28;20395;-72
2022/11/08 07:39:25;;;;;;;4.45;1.70;;;10.90;99.90;;;;;;5042659;28;20037;-74
2022/11/08 07:41:51;;;;;;;5.00;1.60;;;10.90;99.90;;;;;;5039386;28;20033;-73
2022/11/08 07:44:17;;;;;;;5.47;1.88;;;10.90;99.90;;;;;;5039276;28;20029;-73
2022/11/08 07:46:44;;;;;;;6.05;1.38;;;11.00;99.90;;;;;;5045091;28;20156;-72
2022/11/08 07:49:10;;;;;;;5.00;1.00;;;11.00;99.90;;;;;;5058623;28;20044;-72
2022/11/08 07:51:36;;;;;;;3.38;0.82;;;11.10;99.90;;;;;;5005844;28;20045;-73
2022/11/08 07:54:03;;;;;;;4.85;1.30;;;11.10;99.90;;;;;;5023092;28;20040;-72
2022/11/08 07:56:29;;;;;;;3.17;0.80;;;11.10;99.90;;;;;;5027709;28;20048;-73
2022/11/08 07:58:56;;;;;;;4.25;1.00;;;11.20;99.90;;;;;;5025173;28;20048;-73
2022/11/08 08:01:22;;;;;;;7.38;1.05;;;11.20;99.90;;;;;;5022092;28;20044;-72
2022/11/08 08:03:48;;;;;;;4.07;0.60;;;11.30;99.90;;;;;;5022865;28;20037;-72
2022/11/08 08:06:15;;;;;;;3.25;1.00;;;11.30;99.90;;;;;;5041955;28;20040;-72
2022/11/08 08:08:41;;;;;;;5.15;0.80;;;11.40;99.90;;;;;;5042973;28;20041;-71
2022/11/08 08:11:08;;;;;;;4.57;0.90;;;11.50;99.90;;;;;;5040300;28;20041;-71
2022/11/08 08:13:35;;;;;;;5.20;0.70;;;11.50;99.90;;;;;;5040823;28;20408;-73
2022/11/08 08:16:01;;;;;;;5.30;1.05;;;11.60;99.90;;;;;;5042458;28;20047;-73
2022/11/08 08:18:29;;;;;;;1.67;0.70;;;11.60;99.90;;;;;;5010681;28;20048;-73
2022/11/08 08:20:55;;;;;;;3.80;0.70;;;11.70;99.90;;;;;;5040071;28;20500;-74
2022/11/08 08:23:22;;;;;;;5.05;1.13;;;11.70;99.90;;;;;;5041087;28;20044;-72
2022/11/08 08:25:48;;;;;;;4.53;1.02;;;11.70;99.90;;;;;;5042340;28;20484;-72
2022/11/08 08:28:14;;;;;;;3.00;0.70;;;11.80;99.90;;;;;;5010022;28;20499;-72
2022/11/08 08:30:41;;;;;;;4.43;0.98;;;11.90;99.90;;;;;;5039027;28;20048;-73
2022/11/08 08:33:14;;;;;;;4.25;1.35;;;11.90;99.90;;;;;;5023515;28;20400;-73
2022/11/08 08:35:43;;;;;;;5.30;0.80;;;12.00;99.90;;;;;;5043847;28;20276;-71
2022/11/08 08:38:11;;;;;;;4.05;0.93;;;12.10;99.90;;;;;;5030154;28;20127;-73
2022/11/08 08:40:38;;;;;;;4.70;1.00;;;12.20;99.90;;;;;;5026365;28;20024;-72
2022/11/08 08:43:05;;;;;;;4.60;0.80;;;12.30;99.90;;;;;;5041034;28;20393;-72
2022/11/08 08:45:32;;;;;;;2.65;0.60;;;12.40;99.90;;;;;;5044953;28;20045;-73
2022/11/08 08:47:59;;;;;;;2.83;0.80;;;12.50;99.90;;;;;;5027020;28;20041;-73
2022/11/08 08:50:28;;;;;;;2.92;0.80;;;12.50;99.90;;;;;;5039259;28;20036;-73
2022/11/08 08:53:00;;;;;;;3.72;1.05;;;12.70;99.90;;;;;;5039726;28;20490;-71
2022/11/08 08:55:27;;;;;;;;;;;12.70;99.90;;;;;;5027599;28;20044;-71
2022/11/08 08:57:54;;;;;;;17.23;1.95;;;12.80;99.90;;;;;;5043689;28;19943;-70
2022/11/08 09:00:20;;;;;;;4.03;0.70;;;12.90;99.90;;;;;;5044413;28;20043;-71
2022/11/08 09:02:46;;;;;;;4.03;0.80;;;12.90;99.90;;;;;;5024725;28;20045;-71
2022/11/08 09:05:14;;;;;;;3.13;0.60;;;13.00;99.90;;;;;;5043470;28;20407;-70
2022/11/08 09:07:41;;;;;;;1.90;0.70;;;13.10;99.90;;;;;;5030229;28;20048;-70
2022/11/08 09:10:10;;;;;;;2.53;0.63;;;13.10;99.90;;;;;;5040701;28;20693;-71
2022/11/08 09:12:37;;;;;;;2.42;0.80;;;13.20;99.90;;;;;;5008378;28;20068;-70
2022/11/08 09:15:04;;;;;;;1.63;0.50;;;13.20;99.90;;;;;;5042908;28;20052;-70
2022/11/08 09:17:31;;;;;;;3.65;0.98;;;13.30;99.90;;;;;;5027627;28;20268;-71
2022/11/08 09:19:57;;;;;;;4.45;1.50;;;13.30;99.90;;;;;;5041812;28;20522;-70
2022/11/08 09:22:23;;;;;;;4.50;1.08;;;13.30;99.90;;;;;;5021248;28;20140;-70
2022/11/08 09:24:50;;;;;;;4.80;2.08;;;13.30;99.90;;;;;;5028077;28;20036;-71
2022/11/08 09:27:16;;;;;;;5.55;1.33;;;13.40;99.90;;;;;;5042347;28;20476;-71
2022/11/08 09:29:42;;;;;;;3.30;0.68;;;13.40;99.90;;;;;;5039709;28;20499;-70
2022/11/08 09:32:09;;;;;;;1.85;0.52;;;13.40;99.90;;;;;;5004546;28;20036;-71
2022/11/08 09:34:36;;;;;;;1.17;0.50;;;13.50;99.90;;;;;;5010635;28;20049;-70
2022/11/08 09:37:02;;;;;;;2.33;0.60;;;13.60;99.90;;;;;;5037811;28;20048;-71
2022/11/08 09:39:28;;;;;;;3.83;0.60;;;13.60;99.90;;;;;;5035753;28;20041;-71
2022/11/08 09:42:29;;;;;;;3.25;0.60;;;13.70;99.90;;;;;;5033930;28;20033;-71
2022/11/08 09:45:10;;;;;;;2.72;0.60;;;13.80;99.90;;;;;;5034573;28;20033;-70
2022/11/08 09:47:40;;;;;;;1.63;0.50;;;13.90;99.90;;;;;;5035448;28;20048;-70
2022/11/08 09:50:14;;;;;;;1.58;0.60;;;13.90;99.90;;;;;;5034222;28;20511;-71
2022/11/08 09:52:44;;;;;;;2.03;0.75;;;14.00;99.90;;;;;;5002942;28;20034;-69
2022/11/08 09:55:38;;;;;;;1.38;0.50;;;14.10;99.90;;;;;;5037019;28;20021;-70
2022/11/08 09:58:07;;;;;;;2.85;0.43;;;14.20;99.90;;;;;;5020576;28;20052;-70
2022/11/08 10:00:37;;;;;;;2.63;0.73;;;14.20;99.90;;;;;;5018066;28;20044;-75
2022/11/08 10:03:03;;;;;;;1.92;0.55;;;14.30;99.90;;;;;;5006968;28;20084;-74
2022/11/08 10:05:38;;;;;;;2.13;0.93;;;14.30;99.90;;;;;;5041265;28;20041;-76
2022/11/08 10:08:10;;;;;;;2.85;0.70;;;14.30;99.90;;;;;;5041754;28;20064;-80
2022/11/08 10:10:54;;;;;;;2.75;0.50;;;14.30;99.90;;;;;;5021095;28;20048;-77
2022/11/08 10:13:43;;;;;;;3.65;0.85;;;14.30;99.90;;;;;;5022153;28;20029;-76
2022/11/08 10:16:19;;;;;;;43.00;3.28;;;14.40;99.90;;;;;;5022479;28;20522;-78
2022/11/08 10:19:10;;;;;;;8.95;1.85;;;14.40;99.90;;;;;;5036948;28;20033;-77
2022/11/08 10:21:57;;;;;;;2.83;1.33;;;14.40;99.90;;;;;;5033396;28;20045;-76
2022/11/08 10:24:34;;;;;;;5.40;2.65;;;14.40;99.90;;;;;;5032432;28;20048;-78
2022/11/08 10:27:03;;;;;;;2.60;1.33;;;14.40;99.90;;;;;;5034154;28;20033;-78
2022/11/08 10:29:40;;;;;;;2.70;1.00;;;14.50;99.90;;;;;;5034749;28;20672;-84
2022/11/08 10:32:20;;;;;;;4.13;0.80;;;14.60;99.90;;;;;;5017670;28;20033;-79
2022/11/08 10:35:28;;;;;;;3.60;1.10;;;14.60;99.90;;;;;;5023691;28;20045;-79
2022/11/08 10:37:58;;;;;;;2.95;0.60;;;14.70;99.90;;;;;;5020668;28;20045;-78
2022/11/08 10:40:41;;;;;;;1.25;0.40;;;14.70;99.90;;;;;;5003475;28;20033;-77
2022/11/08 10:43:18;;;;;;;2.67;0.80;;;14.70;99.90;;;;;;5033395;28;20045;-78
2022/11/08 10:45:44;;;;;;;2.17;0.57;;;14.80;99.90;;;;;;5036946;28;20040;-78
2022/11/08 10:48:11;;;;;;;2.58;0.70;;;14.80;99.90;;;;;;5022908;28;20029;-77
2022/11/08 10:50:47;;;;;;;6.35;3.05;;;14.90;99.90;;;;;;5017187;28;20048;-77
2022/11/08 10:53:29;;;;;;;7.60;2.47;;;15.00;99.90;;;;;;5031424;28;20048;-78
2022/11/08 10:56:01;;;;;;;3.50;1.45;;;15.10;99.90;;;;;;5019273;28;20484;-79
2022/11/08 10:58:32;;;;;;;4.03;0.93;;;15.10;99.90;;;;;;5020783;28;20068;-80
2022/11/08 11:01:03;;;;;;;1.15;0.45;;;15.00;99.90;;;;;;5019836;28;20041;-78
2022/11/08 11:03:29;;;;;;;2.28;0.65;;;15.00;99.90;;;;;;5034072;28;20041;-80
2022/11/08 11:05:59;;;;;;;1.80;0.75;;;14.90;99.90;;;;;;5019517;28;20037;-80
2022/11/08 11:08:26;;;;;;;2.33;0.50;;;14.90;99.90;;;;;;5014632;28;20104;-78
2022/11/08 11:10:53;;;;;;;2.83;1.10;;;14.80;99.90;;;;;;5041318;28;20041;-79
2022/11/08 11:13:25;;;;;;;5.40;1.27;;;14.80;99.90;;;;;;5023102;28;20396;-80
2022/11/08 11:16:04;;;;;;;6.47;1.60;;;14.80;99.90;;;;;;5039925;28;20403;-80
2022/11/08 11:18:38;;;;;;;2.72;1.10;;;14.70;99.90;;;;;;5019302;28;20041;-80
2022/11/08 11:21:19;;;;;;;2.45;0.70;;;14.80;99.90;;;;;;5024547;28;20550;-78
2022/11/08 11:23:54;;;;;;;4.93;0.80;;;14.80;99.90;;;;;;5041647;28;20032;-80
2022/11/08 11:26:47;;;;;;;3.00;0.50;;;14.80;99.90;;;;;;5044142;28;20033;-85
2022/11/08 11:29:20;;;;;;;2.80;0.60;;;14.80;99.90;;;;;;5044806;28;20040;-79
2022/11/08 11:31:50;;;;;;;5.03;0.90;;;14.80;99.90;;;;;;5044250;28;20037;-80
2022/11/08 11:34:16;;;;;;;3.33;0.60;;;14.90;99.90;;;;;;5011552;28;20511;-83
2022/11/08 11:37:11;;;;;;;6.57;0.68;;;14.90;99.90;;;;;;5011674;28;20037;-84
2022/11/08 11:39:53;;;;;;;3.40;0.70;;;15.00;99.90;;;;;;5026203;28;20044;-76
2022/11/08 11:42:42;;;;;;;2.67;0.50;;;15.00;99.90;;;;;;5041573;28;20032;-81
2022/11/08 11:45:11;;;;;;;2.38;0.57;;;15.10;99.90;;;;;;5043860;28;20040;-80
2022/11/08 11:48:01;;;;;;;2.75;0.63;;;15.10;99.90;;;;;;5044266;28;20366;-81
2022/11/08 11:50:37;;;;;;;4.75;0.82;;;15.20;99.90;;;;;;5041821;28;20053;-82
2022/11/08 11:53:14;;;;;;;2.42;0.60;;;15.20;99.90;;;;;;5025338;28;20044;-82
2022/11/08 11:55:49;;;;;;;2.17;0.55;;;15.20;99.90;;;;;;5041061;28;20044;-81
2022/11/08 11:58:43;;;;;;;3.22;0.60;;;15.20;99.90;;;;;;5038939;28;20538;-81
2022/11/08 12:01:24;;;;;;;3.65;0.60;;;15.20;99.90;;;;;;5038921;28;20504;-80
2022/11/08 12:04:09;;;;;;;1.58;0.70;;;15.20;99.90;;;;;;5037805;28;20285;-83
2022/11/08 12:06:46;;;;;;;3.75;0.70;;;15.30;99.90;;;;;;5025672;28;20041;-81
2022/11/08 12:09:21;;;;;;;4.55;2.70;;;15.40;99.90;;;;;;5040499;28;20031;-81
2022/11/08 12:11:53;;;;;;;4.70;2.22;;;15.50;99.90;;;;;;5025990;28;20041;-78
2022/11/08 12:14:43;;;;;;;4.53;1.00;;;15.70;99.90;;;;;;5038021;28;20041;-78
2022/11/08 12:17:50;;;;;;;3.22;0.50;;;15.80;99.90;;;;;;5028183;28;20040;-79
2022/11/08 12:20:43;;;;;;;2.90;1.15;;;15.90;99.90;;;;;;5008578;28;20044;-83
2022/11/08 12:23:40;;;;;;;2.15;0.43;;;16.00;99.90;;;;;;5022627;28;20037;-81
2022/11/08 12:26:06;;;;;;;2.35;0.50;;;16.00;99.90;;;;;;5006898;28;20456;-80
2022/11/08 12:28:45;;;;;;;3.20;0.40;;;16.10;99.90;;;;;;5042657;28;20037;-81
2022/11/08 12:31:25;;;;;;;2.95;0.60;;;16.30;99.90;;;;;;5022977;28;20041;-81
2022/11/08 12:34:21;;;;;;;3.90;0.50;;;16.30;99.90;;;;;;5023719;28;20509;-83
2022/11/08 12:37:03;;;;;;;3.55;0.55;;;16.40;99.90;;;;;;5040089;28;20044;-80
2022/11/08 12:39:52;;;;;;;2.63;0.60;;;16.50;99.90;;;;;;5012413;28;20045;-80
2022/11/08 12:42:46;;;;;;;4.30;0.60;;;16.50;99.90;;;;;;5038777;28;20044;-82
2022/11/08 12:45:21;;;;;;;1.85;0.50;;;16.40;99.90;;;;;;5025838;28;20045;-82
2022/11/08 12:48:14;;;;;;;2.95;0.50;;;16.30;99.90;;;;;;5040148;28;20026;-82
2022/11/08 12:50:44;;;;;;;3.05;1.00;;;16.30;99.90;;;;;;5024919;28;20042;-80
2022/11/08 12:53:28;;;;;;;3.03;0.63;;;16.20;99.90;;;;;;5038869;28;20033;-82
2022/11/08 12:55:56;;;;;;;2.03;0.50;;;16.10;99.90;;;;;;5038067;28;20041;-82
2022/11/08 12:58:42;;;;;;;3.85;0.73;;;15.90;99.90;;;;;;5038264;28;20048;-83
2022/11/08 13:01:14;;;;;;;1.80;0.52;;;15.80;99.90;;;;;;5035289;28;20032;-80
2022/11/08 13:03:49;;;;;;;2.33;0.70;;;15.70;99.90;;;;;;5033077;28;20044;-82
2022/11/08 13:06:42;;;;;;;1.77;0.47;;;15.60;99.90;;;;;;5023586;28;20040;-82
2022/11/08 13:09:20;;;;;;;3.53;1.25;;;15.60;99.90;;;;;;5023463;28;20037;-80
2022/11/08 13:12:24;;;;;;;4.95;2.17;;;15.60;99.90;;;;;;5009821;28;20486;-83
2022/11/08 13:14:51;;;;;;;3.63;1.67;;;15.50;99.90;;;;;;5021200;28;20040;-79
2022/11/08 13:17:21;;;;;;;3.17;0.95;;;15.50;99.90;;;;;;5034603;28;20036;-79
2022/11/08 13:19:50;;;;;;;3.42;0.80;;;15.50;99.90;;;;;;5007857;28;20403;-80
2022/11/08 13:22:32;;;;;;;5.15;2.15;;;15.50;99.90;;;;;;5035187;28;20033;-81
2022/11/08 13:24:59;;;;;;;4.07;1.58;;;15.60;99.90;;;;;;5013350;28;20033;-80
2022/11/08 13:27:42;;;;;;;2.80;0.80;;;15.60;99.90;;;;;;5034655;28;20033;-81